sensor_id;sensor_type;location;lat;lon;timestamp;temperature;humidity
24444;DHT22;13346;50.984;5.822;2023-01-05T00:01:18;11.20;99.90
24444;DHT22;13346;50.984;5.822;2023-01-05T00:03:46;11.10;99.90
24444;DHT22;13346;50.984;5.822;2023-01-05T00:06:14;11.10;99.90
24444;DHT22;13346;50.984;5.822;2023-01-05T00:08:43;11.10;99.90
24444;DHT22;13346;50.984;5.822;2023-01-05T00:11:13;11.10;99.90
24444;DHT22;13346;50.984;5.822;2023-01-05T00:13:57;11.00;99.90
24444;DHT22;13346;50.984;5.822;2023-01-05T00:16:42;11.00;99.90
24444;DHT22;13346;50.984;5.822;2023-01-05T00:19:27;11.00;99.90
24444;DHT22;13346;50.984;5.822;2023-01-05T00:22:14;11.00;99.90
24444;DHT22;13346;50.984;5.822;2023-01-05T00:24:56;11.00;99.90
24444;DHT22;13346;50.984;5.822;2023-01-05T00:27:25;11.00;99.90
24444;DHT22;13346;50.984;5.822;2023-01-05T00:29:53;11.00;99.90
24444;DHT22;13346;50.984;5.822;2023-01-05T00:32:20;11.00;99.90
24444;DHT22;13346;50.984;5.822;2023-01-05T00:34:47;11.00;99.90
24444;DHT22;13346;50.984;5.822;2023-01-05T00:37:15;11.00;99.90
24444;DHT22;13346;50.984;5.822;2023-01-05T00:39:42;11.00;99.90
24444;DHT22;13346;50.984;5.822;2023-01-05T00:42:09;11.00;99.90
24444;DHT22;13346;50.984;5.822;2023-01-05T00:44:38;11.00;99.90
24444;DHT22;13346;50.984;5.822;2023-01-05T00:47:05;11.00;99.90
24444;DHT22;13346;50.984;5.822;2023-01-05T00:49:32;11.00;99.90
24444;DHT22;13346;50.984;5.822;2023-01-05T00:51:59;11.00;99.90
24444;DHT22;13346;50.984;5.822;2023-01-05T00:54:26;11.00;99.90
24444;DHT22;13346;50.984;5.822;2023-01-05T00:56:54;11.00;99.90
24444;DHT22;13346;50.984;5.822;2023-01-05T00:59:21;11.00;99.90
24444;DHT22;13346;50.984;5.822;2023-01-05T01:01:50;11.00;99.90
24444;DHT22;13346;50.984;5.822;2023-01-05T01:04:19;11.00;99.90
24444;DHT22;13346;50.984;5.822;2023-01-05T01:06:47;11.00;99.90
24444;DHT22;13346;50.984;5.822;2023-01-05T01:09:14;10.90;99.90
24444;DHT22;13346;50.984;5.822;2023-01-05T01:11:41;10.90;99.90
24444;DHT22;13346;50.984;5.822;2023-01-05T01:14:10;10.90;99.90
24444;DHT22;13346;50.984;5.822;2023-01-05T01:16:38;10.90;99.90
24444;DHT22;13346;50.984;5.822;2023-01-05T01:19:07;10.90;99.90
24444;DHT22;13346;50.984;5.822;2023-01-05T01:21:34;10.80;99.90
24444;DHT22;13346;50.984;5.822;2023-01-05T01:24:01;10.70;99.90
24444;DHT22;13346;50.984;5.822;2023-01-05T01:26:28;10.70;99.90
24444;DHT22;13346;50.984;5.822;2023-01-05T01:28:56;10.80;99.90
24444;DHT22;13346;50.984;5.822;2023-01-05T01:31:23;10.80;99.90
24444;DHT22;13346;50.984;5.822;2023-01-05T01:33:50;10.80;99.90
24444;DHT22;13346;50.984;5.822;2023-01-05T01:36:18;10.80;99.90
24444;DHT22;13346;50.984;5.822;2023-01-05T01:38:46;10.80;99.90
24444;DHT22;13346;50.984;5.822;2023-01-05T01:41:13;10.80;99.90
24444;DHT22;13346;50.984;5.822;2023-01-05T01:43:43;10.90;99.90
24444;DHT22;13346;50.984;5.822;2023-01-05T01:46:11;10.90;99.90
24444;DHT22;13346;50.984;5.822;2023-01-05T01:48:42;10.80;99.90
24444;DHT22;13346;50.984;5.822;2023-01-05T01:51:14;10.90;99.90
24444;DHT22;13346;50.984;5.822;2023-01-05T01:53:46;10.80;99.90
24444;DHT22;13346;50.984;5.822;2023-01-05T01:56:17;10.80;99.90
24444;DHT22;13346;50.984;5.822;2023-01-05T01:58:45;10.70;99.90
24444;DHT22;13346;50.984;5.822;2023-01-05T02:01:12;10.70;99.90
24444;DHT22;13346;50.984;5.822;2023-01-05T02:03:40;10.70;99.90
24444;DHT22;13346;50.984;5.822;2023-01-05T02:06:08;10.70;99.90
24444;DHT22;13346;50.984;5.822;2023-01-05T02:08:35;10.80;99.90
24444;DHT22;13346;50.984;5.822;2023-01-05T02:11:16;10.90;99.90
24444;DHT22;13346;50.984;5.822;2023-01-05T02:14:02;10.80;99.90
24444;DHT22;13346;50.984;5.822;2023-01-05T02:16:37;10.90;99.90
24444;DHT22;13346;50.984;5.822;2023-01-05T02:22:08;11.00;99.90
24444;DHT22;13346;50.984;5.822;2023-01-05T02:25:11;11.00;99.90
24444;DHT22;13346;50.984;5.822;2023-01-05T02:27:52;11.00;99.90
24444;DHT22;13346;50.984;5.822;2023-01-05T02:31:04;11.00;99.90
24444;DHT22;13346;50.984;5.822;2023-01-05T02:33:40;11.00;99.90
24444;DHT22;13346;50.984;5.822;2023-01-05T02:36:15;11.00;99.90
24444;DHT22;13346;50.984;5.822;2023-01-05T02:38:50;11.00;99.90
24444;DHT22;13346;50.984;5.822;2023-01-05T02:41:23;11.00;99.90
24444;DHT22;13346;50.984;5.822;2023-01-05T02:43:54;11.10;99.90
24444;DHT22;13346;50.984;5.822;2023-01-05T02:46:23;11.10;99.90
24444;DHT22;13346;50.984;5.822;2023-01-05T02:48:51;11.00;99.90
24444;DHT22;13346;50.984;5.822;2023-01-05T02:51:24;11.00;99.90
24444;DHT22;13346;50.984;5.822;2023-01-05T02:53:55;11.00;99.90
24444;DHT22;13346;50.984;5.822;2023-01-05T02:56:29;11.00;99.90
24444;DHT22;13346;50.984;5.822;2023-01-05T02:59:04;11.00;99.90
24444;DHT22;13346;50.984;5.822;2023-01-05T03:01:37;11.00;99.90
24444;DHT22;13346;50.984;5.822;2023-01-05T03:04:08;11.00;99.90
24444;DHT22;13346;50.984;5.822;2023-01-05T03:06:41;11.00;99.90
24444;DHT22;13346;50.984;5.822;2023-01-05T03:09:14;11.00;99.90
24444;DHT22;13346;50.984;5.822;2023-01-05T03:11:49;11.00;99.90
24444;DHT22;13346;50.984;5.822;2023-01-05T03:14:41;11.00;99.90
24444;DHT22;13346;50.984;5.822;2023-01-05T03:17:13;11.00;99.90
24444;DHT22;13346;50.984;5.822;2023-01-05T03:19:43;11.00;99.90
24444;DHT22;13346;50.984;5.822;2023-01-05T03:22:14;11.10;99.90
24444;DHT22;13346;50.984;5.822;2023-01-05T03:25:01;11.00;99.90
24444;DHT22;13346;50.984;5.822;2023-01-05T03:27:46;11.00;99.90
24444;DHT22;13346;50.984;5.822;2023-01-05T03:30:38;11.00;99.90
24444;DHT22;13346;50.984;5.822;2023-01-05T03:33:32;11.00;99.90
24444;DHT22;13346;50.984;5.822;2023-01-05T03:36:22;11.00;99.90
24444;DHT22;13346;50.984;5.822;2023-01-05T03:38:51;11.10;99.90
24444;DHT22;13346;50.984;5.822;2023-01-05T03:41:19;11.00;99.90
24444;DHT22;13346;50.984;5.822;2023-01-05T03:43:49;11.00;99.90
24444;DHT22;13346;50.984;5.822;2023-01-05T03:46:19;11.10;99.90
24444;DHT22;13346;50.984;5.822;2023-01-05T03:48:48;11.10;99.90
24444;DHT22;13346;50.984;5.822;2023-01-05T03:51:16;11.10;99.90
24444;DHT22;13346;50.984;5.822;2023-01-05T03:53:43;11.00;99.90
24444;DHT22;13346;50.984;5.822;2023-01-05T03:56:10;11.00;99.90
24444;DHT22;13346;50.984;5.822;2023-01-05T03:58:37;11.00;99.90
24444;DHT22;13346;50.984;5.822;2023-01-05T04:01:05;11.00;99.90
24444;DHT22;13346;50.984;5.822;2023-01-05T04:03:33;11.00;99.90
24444;DHT22;13346;50.984;5.822;2023-01-05T04:06:01;11.00;99.90
24444;DHT22;13346;50.984;5.822;2023-01-05T04:08:29;10.90;99.90
24444;DHT22;13346;50.984;5.822;2023-01-05T04:10:56;10.90;99.90
24444;DHT22;13346;50.984;5.822;2023-01-05T04:13:23;10.90;99.90
24444;DHT22;13346;50.984;5.822;2023-01-05T04:15:50;10.90;99.90
24444;DHT22;13346;50.984;5.822;2023-01-05T04:18:17;10.90;99.90
24444;DHT22;13346;50.984;5.822;2023-01-05T04:20:45;10.90;99.90
24444;DHT22;13346;50.984;5.822;2023-01-05T04:23:13;10.80;99.90
24444;DHT22;13346;50.984;5.822;2023-01-05T04:25:40;10.70;99.90
24444;DHT22;13346;50.984;5.822;2023-01-05T04:28:07;10.70;99.90
24444;DHT22;13346;50.984;5.822;2023-01-05T04:30:34;10.60;99.90
24444;DHT22;13346;50.984;5.822;2023-01-05T04:33:01;10.60;99.90
24444;DHT22;13346;50.984;5.822;2023-01-05T04:35:29;10.60;99.90
24444;DHT22;13346;50.984;5.822;2023-01-05T04:37:56;10.60;99.90
24444;DHT22;13346;50.984;5.822;2023-01-05T04:40:24;10.70;99.90
24444;DHT22;13346;50.984;5.822;2023-01-05T04:42:51;10.80;99.90
24444;DHT22;13346;50.984;5.822;2023-01-05T04:45:19;10.70;99.90
24444;DHT22;13346;50.984;5.822;2023-01-05T04:47:46;10.80;99.90
24444;DHT22;13346;50.984;5.822;2023-01-05T04:50:13;10.80;99.90
24444;DHT22;13346;50.984;5.822;2023-01-05T04:52:40;10.90;99.90
24444;DHT22;13346;50.984;5.822;2023-01-05T04:55:07;10.90;99.90
24444;DHT22;13346;50.984;5.822;2023-01-05T04:57:36;10.90;99.90
24444;DHT22;13346;50.984;5.822;2023-01-05T05:00:04;10.90;99.90
24444;DHT22;13346;50.984;5.822;2023-01-05T05:02:31;10.90;99.90
24444;DHT22;13346;50.984;5.822;2023-01-05T05:04:59;10.90;99.90
24444;DHT22;13346;50.984;5.822;2023-01-05T05:07:26;10.90;99.90
24444;DHT22;13346;50.984;5.822;2023-01-05T05:09:53;10.90;99.90
24444;DHT22;13346;50.984;5.822;2023-01-05T05:12:20;10.90;99.90
24444;DHT22;13346;50.984;5.822;2023-01-05T05:14:49;10.90;99.90
24444;DHT22;13346;50.984;5.822;2023-01-05T05:17:16;10.90;99.90
24444;DHT22;13346;50.984;5.822;2023-01-05T05:19:43;11.00;99.90
24444;DHT22;13346;50.984;5.822;2023-01-05T05:22:10;10.90;99.90
24444;DHT22;13346;50.984;5.822;2023-01-05T05:24:37;10.90;99.90
24444;DHT22;13346;50.984;5.822;2023-01-05T05:27:04;10.90;99.90
24444;DHT22;13346;50.984;5.822;2023-01-05T05:29:31;10.90;99.90
24444;DHT22;13346;50.984;5.822;2023-01-05T05:32:00;10.90;99.90
24444;DHT22;13346;50.984;5.822;2023-01-05T05:34:27;10.90;99.90
24444;DHT22;13346;50.984;5.822;2023-01-05T05:36:54;10.90;99.90
24444;DHT22;13346;50.984;5.822;2023-01-05T05:39:21;10.90;99.90
24444;DHT22;13346;50.984;5.822;2023-01-05T05:41:49;10.90;99.90
24444;DHT22;13346;50.984;5.822;2023-01-05T05:44:16;10.90;99.90
24444;DHT22;13346;50.984;5.822;2023-01-05T05:46:43;10.90;99.90
24444;DHT22;13346;50.984;5.822;2023-01-05T05:49:12;10.90;99.90
24444;DHT22;13346;50.984;5.822;2023-01-05T05:51:39;10.90;99.90
24444;DHT22;13346;50.984;5.822;2023-01-05T05:54:06;10.90;99.90
24444;DHT22;13346;50.984;5.822;2023-01-05T05:56:33;10.90;99.90
24444;DHT22;13346;50.984;5.822;2023-01-05T05:59:00;10.90;99.90
24444;DHT22;13346;50.984;5.822;2023-01-05T06:01:27;10.90;99.90
24444;DHT22;13346;50.984;5.822;2023-01-05T06:03:55;10.90;99.90
24444;DHT22;13346;50.984;5.822;2023-01-05T06:06:23;10.90;99.90
24444;DHT22;13346;50.984;5.822;2023-01-05T06:08:50;10.90;99.90
24444;DHT22;13346;50.984;5.822;2023-01-05T06:11:18;10.90;99.90
24444;DHT22;13346;50.984;5.822;2023-01-05T06:13:45;10.80;99.90
24444;DHT22;13346;50.984;5.822;2023-01-05T06:16:13;10.80;99.90
24444;DHT22;13346;50.984;5.822;2023-01-05T06:18:40;10.80;99.90
24444;DHT22;13346;50.984;5.822;2023-01-05T06:21:07;10.80;99.90
24444;DHT22;13346;50.984;5.822;2023-01-05T06:23:36;10.80;99.90
24444;DHT22;13346;50.984;5.822;2023-01-05T06:26:03;10.80;99.90
24444;DHT22;13346;50.984;5.822;2023-01-05T06:28:30;10.80;99.90
24444;DHT22;13346;50.984;5.822;2023-01-05T06:30:58;10.80;99.90
24444;DHT22;13346;50.984;5.822;2023-01-05T06:33:25;10.80;99.90
24444;DHT22;13346;50.984;5.822;2023-01-05T06:35:52;10.80;99.90
24444;DHT22;13346;50.984;5.822;2023-01-05T06:38:19;10.90;99.90
24444;DHT22;13346;50.984;5.822;2023-01-05T06:40:48;10.90;99.90
24444;DHT22;13346;50.984;5.822;2023-01-05T06:43:15;10.90;99.90
24444;DHT22;13346;50.984;5.822;2023-01-05T06:45:43;10.90;99.90
24444;DHT22;13346;50.984;5.822;2023-01-05T06:48:10;10.90;99.90
24444;DHT22;13346;50.984;5.822;2023-01-05T06:50:37;10.90;99.90
24444;DHT22;13346;50.984;5.822;2023-01-05T06:53:04;10.90;99.90
24444;DHT22;13346;50.984;5.822;2023-01-05T06:55:32;10.90;99.90
24444;DHT22;13346;50.984;5.822;2023-01-05T06:58:00;10.90;99.90
24444;DHT22;13346;50.984;5.822;2023-01-05T07:00:28;10.90;99.90
24444;DHT22;13346;50.984;5.822;2023-01-05T07:02:55;10.90;99.90
24444;DHT22;13346;50.984;5.822;2023-01-05T07:05:22;10.90;99.90
24444;DHT22;13346;50.984;5.822;2023-01-05T07:07:49;10.90;99.90
24444;DHT22;13346;50.984;5.822;2023-01-05T07:10:17;10.90;99.90
24444;DHT22;13346;50.984;5.822;2023-01-05T07:12:44;10.90;99.90
24444;DHT22;13346;50.984;5.822;2023-01-05T07:15:12;10.90;99.90
24444;DHT22;13346;50.984;5.822;2023-01-05T07:17:40;10.90;99.90
24444;DHT22;13346;50.984;5.822;2023-01-05T07:20:08;10.90;99.90
24444;DHT22;13346;50.984;5.822;2023-01-05T07:22:35;10.90;99.90
24444;DHT22;13346;50.984;5.822;2023-01-05T07:25:02;10.90;99.90
24444;DHT22;13346;50.984;5.822;2023-01-05T07:27:29;10.90;99.90
24444;DHT22;13346;50.984;5.822;2023-01-05T07:29:57;10.90;99.90
24444;DHT22;13346;50.984;5.822;2023-01-05T07:32:26;10.90;99.90
24444;DHT22;13346;50.984;5.822;2023-01-05T07:34:53;10.90;99.90
24444;DHT22;13346;50.984;5.822;2023-01-05T07:37:20;10.90;99.90
24444;DHT22;13346;50.984;5.822;2023-01-05T07:39:49;10.90;99.90
24444;DHT22;13346;50.984;5.822;2023-01-05T07:42:16;10.90;99.90
24444;DHT22;13346;50.984;5.822;2023-01-05T07:44:43;10.90;99.90
24444;DHT22;13346;50.984;5.822;2023-01-05T07:47:10;10.80;99.90
24444;DHT22;13346;50.984;5.822;2023-01-05T07:49:39;10.80;99.90
24444;DHT22;13346;50.984;5.822;2023-01-05T07:52:06;10.80;99.90
24444;DHT22;13346;50.984;5.822;2023-01-05T07:54:33;10.90;99.90
24444;DHT22;13346;50.984;5.822;2023-01-05T07:57:00;10.90;99.90
24444;DHT22;13346;50.984;5.822;2023-01-05T07:59:27;10.90;99.90
24444;DHT22;13346;50.984;5.822;2023-01-05T08:01:55;10.90;99.90
24444;DHT22;13346;50.984;5.822;2023-01-05T08:04:23;10.90;99.90
24444;DHT22;13346;50.984;5.822;2023-01-05T08:06:52;10.90;99.90
24444;DHT22;13346;50.984;5.822;2023-01-05T08:09:19;10.90;99.90
24444;DHT22;13346;50.984;5.822;2023-01-05T08:12:03;10.90;99.90
24444;DHT22;13346;50.984;5.822;2023-01-05T08:14:30;10.90;99.90
24444;DHT22;13346;50.984;5.822;2023-01-05T08:16:57;10.90;99.90
24444;DHT22;13346;50.984;5.822;2023-01-05T08:19:25;10.90;99.90
24444;DHT22;13346;50.984;5.822;2023-01-05T08:21:53;10.90;99.90
24444;DHT22;13346;50.984;5.822;2023-01-05T08:24:20;11.00;99.90
24444;DHT22;13346;50.984;5.822;2023-01-05T08:26:49;11.00;99.90
24444;DHT22;13346;50.984;5.822;2023-01-05T08:29:16;11.00;99.90
24444;DHT22;13346;50.984;5.822;2023-01-05T08:31:43;11.00;99.90
24444;DHT22;13346;50.984;5.822;2023-01-05T08:34:10;11.00;99.90
24444;DHT22;13346;50.984;5.822;2023-01-05T08:36:38;11.00;99.90
24444;DHT22;13346;50.984;5.822;2023-01-05T08:39:09;11.00;99.90
24444;DHT22;13346;50.984;5.822;2023-01-05T08:41:38;11.00;99.90
24444;DHT22;13346;50.984;5.822;2023-01-05T08:44:06;11.00;99.90
24444;DHT22;13346;50.984;5.822;2023-01-05T08:46:35;11.00;99.90
24444;DHT22;13346;50.984;5.822;2023-01-05T08:49:05;11.00;99.90
24444;DHT22;13346;50.984;5.822;2023-01-05T08:51:32;11.10;99.90
24444;DHT22;13346;50.984;5.822;2023-01-05T08:54:00;11.10;99.90
24444;DHT22;13346;50.984;5.822;2023-01-05T08:56:28;11.10;99.90
24444;DHT22;13346;50.984;5.822;2023-01-05T08:58:55;11.10;99.90
24444;DHT22;13346;50.984;5.822;2023-01-05T09:01:24;11.10;99.90
24444;DHT22;13346;50.984;5.822;2023-01-05T09:03:51;11.20;99.90
24444;DHT22;13346;50.984;5.822;2023-01-05T09:06:18;11.20;99.90
24444;DHT22;13346;50.984;5.822;2023-01-05T09:08:46;11.30;99.90
24444;DHT22;13346;50.984;5.822;2023-01-05T09:11:15;11.30;99.90
24444;DHT22;13346;50.984;5.822;2023-01-05T09:13:47;11.40;99.90
24444;DHT22;13346;50.984;5.822;2023-01-05T09:16:16;11.40;99.90
24444;DHT22;13346;50.984;5.822;2023-01-05T09:18:44;11.40;99.90
24444;DHT22;13346;50.984;5.822;2023-01-05T09:21:12;11.50;99.90
24444;DHT22;13346;50.984;5.822;2023-01-05T09:23:40;11.50;99.90
24444;DHT22;13346;50.984;5.822;2023-01-05T09:26:08;11.50;99.90
24444;DHT22;13346;50.984;5.822;2023-01-05T09:28:36;11.50;99.90
24444;DHT22;13346;50.984;5.822;2023-01-05T09:31:10;11.50;99.90
24444;DHT22;13346;50.984;5.822;2023-01-05T09:33:38;11.50;99.90
24444;DHT22;13346;50.984;5.822;2023-01-05T09:36:07;11.50;99.90
24444;DHT22;13346;50.984;5.822;2023-01-05T09:38:35;11.40;99.90
24444;DHT22;13346;50.984;5.822;2023-01-05T09:41:06;11.30;99.90
24444;DHT22;13346;50.984;5.822;2023-01-05T09:43:36;11.40;99.90
24444;DHT22;13346;50.984;5.822;2023-01-05T09:46:10;11.50;99.90
24444;DHT22;13346;50.984;5.822;2023-01-05T09:48:41;11.60;99.90
24444;DHT22;13346;50.984;5.822;2023-01-05T09:51:10;11.60;99.90
24444;DHT22;13346;50.984;5.822;2023-01-05T09:53:38;11.70;99.90
24444;DHT22;13346;50.984;5.822;2023-01-05T09:56:15;11.70;99.90
24444;DHT22;13346;50.984;5.822;2023-01-05T09:58:46;11.80;99.90
24444;DHT22;13346;50.984;5.822;2023-01-05T10:01:16;12.00;99.90
24444;DHT22;13346;50.984;5.822;2023-01-05T10:03:53;12.20;99.90
24444;DHT22;13346;50.984;5.822;2023-01-05T10:06:26;12.20;99.90
24444;DHT22;13346;50.984;5.822;2023-01-05T10:08:54;12.20;99.90
24444;DHT22;13346;50.984;5.822;2023-01-05T10:11:27;12.30;99.90
24444;DHT22;13346;50.984;5.822;2023-01-05T10:14:16;12.30;99.90
24444;DHT22;13346;50.984;5.822;2023-01-05T10:16:46;12.20;99.90
24444;DHT22;13346;50.984;5.822;2023-01-05T10:19:14;12.20;99.90
24444;DHT22;13346;50.984;5.822;2023-01-05T10:21:51;12.10;99.90
24444;DHT22;13346;50.984;5.822;2023-01-05T10:24:30;12.30;99.90
24444;DHT22;13346;50.984;5.822;2023-01-05T10:27:05;12.70;99.90
24444;DHT22;13346;50.984;5.822;2023-01-05T10:29:39;12.60;99.90
24444;DHT22;13346;50.984;5.822;2023-01-05T10:32:21;12.40;99.90
24444;DHT22;13346;50.984;5.822;2023-01-05T10:34:55;12.20;99.90
24444;DHT22;13346;50.984;5.822;2023-01-05T10:37:43;12.20;99.90
24444;DHT22;13346;50.984;5.822;2023-01-05T10:40:27;12.30;99.90
24444;DHT22;13346;50.984;5.822;2023-01-05T10:43:10;12.30;99.90
24444;DHT22;13346;50.984;5.822;2023-01-05T10:45:40;12.40;99.90
24444;DHT22;13346;50.984;5.822;2023-01-05T10:48:12;12.50;99.90
24444;DHT22;13346;50.984;5.822;2023-01-05T10:50:42;13.00;99.90
24444;DHT22;13346;50.984;5.822;2023-01-05T10:53:11;13.00;99.90
24444;DHT22;13346;50.984;5.822;2023-01-05T10:55:51;13.10;99.90
24444;DHT22;13346;50.984;5.822;2023-01-05T10:58:21;12.80;99.90
24444;DHT22;13346;50.984;5.822;2023-01-05T11:00:49;12.80;99.90
24444;DHT22;13346;50.984;5.822;2023-01-05T11:03:24;12.40;99.90
24444;DHT22;13346;50.984;5.822;2023-01-05T11:05:53;12.40;99.90
24444;DHT22;13346;50.984;5.822;2023-01-05T11:08:21;12.50;99.90
24444;DHT22;13346;50.984;5.822;2023-01-05T11:10:55;12.50;99.90
24444;DHT22;13346;50.984;5.822;2023-01-05T11:13:29;12.50;99.90
24444;DHT22;13346;50.984;5.822;2023-01-05T11:16:01;12.50;99.90
24444;DHT22;13346;50.984;5.822;2023-01-05T11:18:33;12.40;99.90
24444;DHT22;13346;50.984;5.822;2023-01-05T11:21:11;12.30;99.90
24444;DHT22;13346;50.984;5.822;2023-01-05T11:23:40;12.50;99.90
24444;DHT22;13346;50.984;5.822;2023-01-05T11:26:20;12.40;99.90
24444;DHT22;13346;50.984;5.822;2023-01-05T11:28:59;12.40;99.90
24444;DHT22;13346;50.984;5.822;2023-01-05T11:31:31;12.30;99.90
24444;DHT22;13346;50.984;5.822;2023-01-05T11:34:06;12.30;99.90
24444;DHT22;13346;50.984;5.822;2023-01-05T11:36:34;12.40;99.90
24444;DHT22;13346;50.984;5.822;2023-01-05T11:39:01;12.30;99.90
24444;DHT22;13346;50.984;5.822;2023-01-05T11:41:29;12.50;99.90
24444;DHT22;13346;50.984;5.822;2023-01-05T11:43:56;12.80;99.90
24444;DHT22;13346;50.984;5.822;2023-01-05T11:46:25;12.70;99.90
24444;DHT22;13346;50.984;5.822;2023-01-05T11:49:07;12.60;99.90
24444;DHT22;13346;50.984;5.822;2023-01-05T11:51:36;12.50;99.90
24444;DHT22;13346;50.984;5.822;2023-01-05T11:54:04;12.40;99.90
24444;DHT22;13346;50.984;5.822;2023-01-05T11:56:32;12.30;99.90
24444;DHT22;13346;50.984;5.822;2023-01-05T11:58:59;12.30;99.90
24444;DHT22;13346;50.984;5.822;2023-01-05T12:01:55;12.30;99.90
24444;DHT22;13346;50.984;5.822;2023-01-05T12:04:45;12.30;99.90
24444;DHT22;13346;50.984;5.822;2023-01-05T12:07:26;12.20;99.90
24444;DHT22;13346;50.984;5.822;2023-01-05T12:10:00;12.10;99.90
24444;DHT22;13346;50.984;5.822;2023-01-05T12:12:43;12.20;99.90
24444;DHT22;13346;50.984;5.822;2023-01-05T12:15:40;12.10;99.90
24444;DHT22;13346;50.984;5.822;2023-01-05T12:18:24;12.00;99.90
24444;DHT22;13346;50.984;5.822;2023-01-05T12:21:00;11.90;99.90
24444;DHT22;13346;50.984;5.822;2023-01-05T12:23:57;11.90;99.90
24444;DHT22;13346;50.984;5.822;2023-01-05T12:26:30;11.90;99.90
24444;DHT22;13346;50.984;5.822;2023-01-05T12:32:10;11.80;99.90
24444;DHT22;13346;50.984;5.822;2023-01-05T12:35:05;11.80;99.90
24444;DHT22;13346;50.984;5.822;2023-01-05T12:37:46;11.80;99.90
24444;DHT22;13346;50.984;5.822;2023-01-05T12:40:31;11.90;99.90
24444;DHT22;13346;50.984;5.822;2023-01-05T12:43:03;12.10;99.90
24444;DHT22;13346;50.984;5.822;2023-01-05T12:45:54;12.20;99.90
24444;DHT22;13346;50.984;5.822;2023-01-05T12:48:27;12.20;99.90
24444;DHT22;13346;50.984;5.822;2023-01-05T12:51:02;12.10;99.90
24444;DHT22;13346;50.984;5.822;2023-01-05T12:53:39;12.00;99.90
24444;DHT22;13346;50.984;5.822;2023-01-05T12:56:16;12.10;99.90
24444;DHT22;13346;50.984;5.822;2023-01-05T12:58:49;12.10;99.90
24444;DHT22;13346;50.984;5.822;2023-01-05T13:01:21;12.20;99.90
24444;DHT22;13346;50.984;5.822;2023-01-05T13:03:54;12.20;99.90
24444;DHT22;13346;50.984;5.822;2023-01-05T13:06:24;12.40;99.90
24444;DHT22;13346;50.984;5.822;2023-01-05T13:08:56;12.50;99.90
24444;DHT22;13346;50.984;5.822;2023-01-05T13:11:28;12.40;99.90
24444;DHT22;13346;50.984;5.822;2023-01-05T13:13:59;12.40;99.90
24444;DHT22;13346;50.984;5.822;2023-01-05T13:16:34;12.40;99.90
24444;DHT22;13346;50.984;5.822;2023-01-05T13:19:08;12.30;99.90
24444;DHT22;13346;50.984;5.822;2023-01-05T13:21:39;12.20;99.90
24444;DHT22;13346;50.984;5.822;2023-01-05T13:24:11;12.50;99.90
24444;DHT22;13346;50.984;5.822;2023-01-05T13:26:42;12.80;99.90
24444;DHT22;13346;50.984;5.822;2023-01-05T13:29:19;12.90;99.90
24444;DHT22;13346;50.984;5.822;2023-01-05T13:32:15;12.80;99.90
24444;DHT22;13346;50.984;5.822;2023-01-05T13:35:07;12.80;99.90
24444;DHT22;13346;50.984;5.822;2023-01-05T13:41:05;12.60;99.90
24444;DHT22;13346;50.984;5.822;2023-01-05T13:46:50;12.40;99.90
24444;DHT22;13346;50.984;5.822;2023-01-05T13:49:42;12.30;99.90
24444;DHT22;13346;50.984;5.822;2023-01-05T13:52:22;12.30;99.90
24444;DHT22;13346;50.984;5.822;2023-01-05T13:54:54;12.40;99.90
24444;DHT22;13346;50.984;5.822;2023-01-05T13:57:29;12.30;99.90
24444;DHT22;13346;50.984;5.822;2023-01-05T14:00:02;12.20;99.90
24444;DHT22;13346;50.984;5.822;2023-01-05T14:02:35;12.10;99.90
24444;DHT22;13346;50.984;5.822;2023-01-05T14:05:06;12.10;99.90
24444;DHT22;13346;50.984;5.822;2023-01-05T14:07:38;12.10;99.90
24444;DHT22;13346;50.984;5.822;2023-01-05T14:10:19;12.00;99.90
24444;DHT22;13346;50.984;5.822;2023-01-05T14:12:50;12.00;99.90
24444;DHT22;13346;50.984;5.822;2023-01-05T14:15:34;12.00;99.90
24444;DHT22;13346;50.984;5.822;2023-01-05T14:18:03;12.00;99.90
24444;DHT22;13346;50.984;5.822;2023-01-05T14:20:42;12.10;99.90
24444;DHT22;13346;50.984;5.822;2023-01-05T14:23:52;12.00;99.90
24444;DHT22;13346;50.984;5.822;2023-01-05T14:26:58;11.90;99.90
24444;DHT22;13346;50.984;5.822;2023-01-05T14:32:37;11.80;99.90
24444;DHT22;13346;50.984;5.822;2023-01-05T14:35:17;11.80;99.90
24444;DHT22;13346;50.984;5.822;2023-01-05T14:37:53;11.80;99.90
24444;DHT22;13346;50.984;5.822;2023-01-05T14:40:36;11.70;99.90
24444;DHT22;13346;50.984;5.822;2023-01-05T14:45:59;11.40;99.90
24444;DHT22;13346;50.984;5.822;2023-01-05T14:48:31;11.20;99.90
24444;DHT22;13346;50.984;5.822;2023-01-05T14:51:15;11.20;99.90
24444;DHT22;13346;50.984;5.822;2023-01-05T14:53:44;11.10;99.90
24444;DHT22;13346;50.984;5.822;2023-01-05T14:56:18;10.90;99.90
24444;DHT22;13346;50.984;5.822;2023-01-05T14:58:56;10.80;99.90
24444;DHT22;13346;50.984;5.822;2023-01-05T15:01:27;10.80;99.90
24444;DHT22;13346;50.984;5.822;2023-01-05T15:04:03;10.80;99.90
24444;DHT22;13346;50.984;5.822;2023-01-05T15:06:41;10.70;99.90
24444;DHT22;13346;50.984;5.822;2023-01-05T15:12:38;10.50;99.90
24444;DHT22;13346;50.984;5.822;2023-01-05T15:15:34;10.40;99.90
24444;DHT22;13346;50.984;5.822;2023-01-05T15:18:31;10.40;99.90
24444;DHT22;13346;50.984;5.822;2023-01-05T15:27:32;10.20;99.90
24444;DHT22;13346;50.984;5.822;2023-01-05T15:30:19;10.20;99.90
24444;DHT22;13346;50.984;5.822;2023-01-05T15:32:53;10.20;99.90
24444;DHT22;13346;50.984;5.822;2023-01-05T15:35:42;10.20;99.90
24444;DHT22;13346;50.984;5.822;2023-01-05T15:38:19;10.20;99.90
24444;DHT22;13346;50.984;5.822;2023-01-05T15:40:47;10.20;99.90
24444;DHT22;13346;50.984;5.822;2023-01-05T15:43:16;10.20;99.90
24444;DHT22;13346;50.984;5.822;2023-01-05T15:45:48;10.20;99.90
24444;DHT22;13346;50.984;5.822;2023-01-05T15:48:25;10.20;99.90
24444;DHT22;13346;50.984;5.822;2023-01-05T15:50:55;10.10;99.90
24444;DHT22;13346;50.984;5.822;2023-01-05T15:53:26;10.10;99.90
24444;DHT22;13346;50.984;5.822;2023-01-05T15:55:54;10.10;99.90
24444;DHT22;13346;50.984;5.822;2023-01-05T15:58:23;10.10;99.90
24444;DHT22;13346;50.984;5.822;2023-01-05T16:01:03;10.10;99.90
24444;DHT22;13346;50.984;5.822;2023-01-05T16:03:33;10.10;99.90
24444;DHT22;13346;50.984;5.822;2023-01-05T16:06:02;10.10;99.90
24444;DHT22;13346;50.984;5.822;2023-01-05T16:08:35;10.10;99.90
24444;DHT22;13346;50.984;5.822;2023-01-05T16:11:08;10.10;99.90
24444;DHT22;13346;50.984;5.822;2023-01-05T16:13:39;10.10;99.90
24444;DHT22;13346;50.984;5.822;2023-01-05T16:16:11;10.10;99.90
24444;DHT22;13346;50.984;5.822;2023-01-05T16:18:41;10.20;99.90
24444;DHT22;13346;50.984;5.822;2023-01-05T16:21:19;10.10;99.90
24444;DHT22;13346;50.984;5.822;2023-01-05T16:23:52;10.20;99.90
24444;DHT22;13346;50.984;5.822;2023-01-05T16:26:21;10.20;99.90
24444;DHT22;13346;50.984;5.822;2023-01-05T16:28:49;10.20;99.90